Time;durP1;ratioP1;P1;durP2;ratioP2;P2;SDS_P1;SDS_P2;PMS_P1;PMS_P2;Temp;Humidity;BMP_temperature;BMP_pressure;BME280_temperature;BME280_humidity;BME280_pressure;Samples;Min_cycle;Max_cycle;Signal;HPM_P1;HPM_P2
2022/09/12 00:00:01;;;;;;;1.03;0.60;;;15.60;99.90;;;;;;5072809;28;20225;-80
2022/09/12 00:02:27;;;;;;;1.23;1.10;;;15.50;99.90;;;;;;5074607;28;20238;-80
2022/09/12 00:04:52;;;;;;;2.30;2.00;;;15.40;99.90;;;;;;5073050;28;20536;-80
2022/09/12 00:07:18;;;;;;;2.57;0.73;;;15.20;99.90;;;;;;5072289;28;21108;-80
2022/09/12 00:09:44;;;;;;;0.67;0.40;;;15.20;99.90;;;;;;5071004;28;20225;-80
2022/09/12 00:12:10;;;;;;;1.23;0.90;;;15.00;99.90;;;;;;5075316;28;20702;-80
2022/09/12 00:14:36;;;;;;;3.17;0.77;;;14.90;99.90;;;;;;5071963;28;22079;-81
2022/09/12 00:17:02;;;;;;;0.30;0.30;;;14.80;99.90;;;;;;5073859;28;20184;-80
2022/09/12 00:19:29;;;;;;;0.73;0.73;;;14.80;99.90;;;;;;5072133;28;20213;-80
2022/09/12 00:21:55;;;;;;;0.63;0.63;;;14.70;99.90;;;;;;5074114;28;20224;-80
2022/09/12 00:24:21;;;;;;;0.43;0.43;;;14.70;99.90;;;;;;5076654;28;20195;-81
2022/09/12 00:26:47;;;;;;;0.80;0.80;;;14.60;99.90;;;;;;5077362;28;20186;-79
2022/09/12 00:29:18;;;;;;;0.27;0.27;;;14.60;99.90;;;;;;5075981;28;20276;-79
2022/09/12 00:31:44;;;;;;;1.17;0.67;;;14.60;99.90;;;;;;5076392;28;20200;-79
2022/09/12 00:34:10;;;;;;;3.20;0.87;;;14.70;99.90;;;;;;5077665;28;20191;-79
2022/09/12 00:36:36;;;;;;;1.00;0.70;;;14.80;99.90;;;;;;5075117;28;20183;-79
2022/09/12 00:39:03;;;;;;;0.93;0.83;;;14.70;99.90;;;;;;5076628;28;20191;-79
2022/09/12 00:41:32;;;;;;;1.33;0.57;;;14.70;99.90;;;;;;5076314;28;20190;-79
2022/09/12 00:44:03;;;;;;;0.97;0.73;;;14.50;99.90;;;;;;5074829;28;20247;-79
2022/09/12 00:46:45;;;;;;;1.37;0.73;;;14.40;99.90;;;;;;5077293;28;20197;-79
2022/09/12 00:49:36;;;;;;;0.30;0.30;;;14.40;99.90;;;;;;5077529;28;20205;-79
2022/09/12 00:52:17;;;;;;;0.87;0.87;;;14.40;99.90;;;;;;5074203;28;20203;-79
2022/09/12 00:54:52;;;;;;;1.47;1.30;;;14.30;99.90;;;;;;5077091;28;20183;-79
2022/09/12 00:57:21;;;;;;;0.80;0.80;;;14.20;99.90;;;;;;5074535;28;20291;-79
2022/09/12 00:59:55;;;;;;;1.80;0.47;;;14.20;99.90;;;;;;5075410;28;21203;-79
2022/09/12 01:02:21;;;;;;;1.67;0.73;;;14.10;99.90;;;;;;5075747;28;20242;-79
2022/09/12 01:04:47;;;;;;;0.83;0.80;;;14.10;99.90;;;;;;5075050;28;20192;-79
2022/09/12 01:07:14;;;;;;;2.80;0.77;;;14.10;99.90;;;;;;5074646;28;20731;-79
2022/09/12 01:09:43;;;;;;;1.10;1.10;;;14.10;99.90;;;;;;5074254;28;20274;-79
2022/09/12 01:12:08;;;;;;;0.73;0.73;;;14.10;99.90;;;;;;5074296;28;20202;-79
2022/09/12 01:14:34;;;;;;;0.70;0.70;;;14.30;99.90;;;;;;5073239;28;20260;-79
2022/09/12 01:17:00;;;;;;;1.10;1.07;;;14.10;99.90;;;;;;5074143;28;20227;-79
2022/09/12 01:19:47;;;;;;;0.80;0.80;;;14.10;99.90;;;;;;5075971;28;20181;-79
2022/09/12 01:22:50;;;;;;;0.63;0.63;;;14.00;99.90;;;;;;5072579;28;20230;-78
2022/09/12 01:26:01;;;;;;;0.93;0.40;;;14.00;99.90;;;;;;5074012;28;20214;-79
2022/09/12 01:28:36;;;;;;;1.43;0.83;;;14.00;99.90;;;;;;5073328;28;20177;-79
2022/09/12 01:31:16;;;;;;;0.70;0.43;;;13.90;99.90;;;;;;5070974;28;20329;-79
2022/09/12 01:33:47;;;;;;;0.53;0.53;;;13.90;99.90;;;;;;5074155;28;20261;-79
2022/09/12 01:36:34;;;;;;;1.30;0.67;;;13.80;99.90;;;;;;5071146;28;21541;-79
2022/09/12 01:39:21;;;;;;;1.40;0.47;;;13.80;99.90;;;;;;5072622;28;20184;-79
2022/09/12 01:42:00;;;;;;;0.40;0.40;;;13.90;99.90;;;;;;5073715;28;20208;-79
2022/09/12 01:44:55;;;;;;;0.57;0.57;;;13.90;99.90;;;;;;5071682;28;20184;-80
2022/09/12 01:47:50;;;;;;;0.60;0.60;;;13.90;99.90;;;;;;5065011;28;20280;-79
2022/09/12 01:50:20;;;;;;;0.90;0.77;;;14.00;99.90;;;;;;5067039;28;20228;-79
2022/09/12 01:52:51;;;;;;;1.17;0.50;;;13.90;99.90;;;;;;5072048;28;20323;-79
2022/09/12 01:55:29;;;;;;;1.70;1.27;;;13.90;99.90;;;;;;5072591;28;20209;-79
2022/09/12 01:58:11;;;;;;;0.70;0.70;;;13.90;99.90;;;;;;5072231;28;20208;-79
2022/09/12 02:00:53;;;;;;;1.33;0.50;;;13.90;99.90;;;;;;5074643;28;20193;-79
2022/09/12 02:03:45;;;;;;;0.50;0.40;;;13.80;99.90;;;;;;5074450;28;20217;-79
2022/09/12 02:06:19;;;;;;;0.47;0.47;;;13.90;99.90;;;;;;5081038;28;20185;-78
2022/09/12 02:09:22;;;;;;;0.47;0.40;;;14.00;99.90;;;;;;5073899;28;20263;-79
2022/09/12 02:11:51;;;;;;;0.47;0.47;;;14.00;99.90;;;;;;5055042;28;20217;-79
2022/09/12 02:14:31;;;;;;;0.13;0.13;;;14.20;99.90;;;;;;5073693;28;20545;-79
2022/09/12 02:17:02;;;;;;;0.67;0.67;;;14.20;99.90;;;;;;5076485;28;21081;-79
2022/09/12 02:19:35;;;;;;;0.97;0.80;;;14.30;99.90;;;;;;5074184;28;20217;-79
2022/09/12 02:22:03;;;;;;;0.30;0.30;;;14.20;99.90;;;;;;5075622;28;20242;-79
2022/09/12 02:24:35;;;;;;;1.03;0.90;;;14.30;99.90;;;;;;5074733;28;20197;-79
2022/09/12 02:27:10;;;;;;;1.23;0.87;;;14.30;99.90;;;;;;5074397;28;20268;-79
2022/09/12 02:29:35;;;;;;;0.70;0.60;;;14.30;99.90;;;;;;5073398;28;20602;-79
2022/09/12 02:32:14;;;;;;;0.47;0.47;;;14.20;99.90;;;;;;5071950;28;20244;-79
2022/09/12 02:34:42;;;;;;;0.53;0.53;;;14.20;99.90;;;;;;5073501;28;20184;-79
2022/09/12 02:37:40;;;;;;;0.60;0.60;;;14.20;99.90;;;;;;5074902;28;20286;-79
2022/09/12 02:40:07;;;;;;;0.47;0.47;;;14.30;99.90;;;;;;5064803;28;20225;-79
2022/09/12 02:42:34;;;;;;;0.53;0.53;;;14.30;99.90;;;;;;5072449;28;20222;-79
2022/09/12 02:44:59;;;;;;;1.17;1.07;;;14.40;99.90;;;;;;5074040;28;20328;-79
2022/09/12 02:47:30;;;;;;;1.27;0.70;;;14.40;99.90;;;;;;5074178;28;20284;-79
2022/09/12 02:49:58;;;;;;;3.03;1.20;;;14.40;99.90;;;;;;5072607;28;20557;-79
2022/09/12 02:52:25;;;;;;;2.03;0.97;;;14.30;99.90;;;;;;5070697;28;20261;-79
2022/09/12 02:54:51;;;;;;;0.20;0.20;;;14.00;99.90;;;;;;5074793;28;20182;-79
2022/09/12 02:57:19;;;;;;;0.77;0.40;;;13.90;99.90;;;;;;5074861;28;20214;-79
2022/09/12 02:59:46;;;;;;;0.50;0.43;;;13.80;99.90;;;;;;5071853;28;20200;-79
2022/09/12 03:02:45;;;;;;;0.60;0.60;;;13.60;99.90;;;;;;5074736;28;20720;-79
2022/09/12 03:05:15;;;;;;;0.20;0.20;;;13.70;99.90;;;;;;5072807;28;20205;-79
2022/09/12 03:08:06;;;;;;;0.60;0.60;;;13.70;99.90;;;;;;5074867;28;20194;-79
2022/09/12 03:10:52;;;;;;;0.10;0.10;;;13.80;99.90;;;;;;5074510;28;20321;-79
2022/09/12 03:13:33;;;;;;;1.30;0.73;;;13.80;99.90;;;;;;5071162;28;20213;-79
2022/09/12 03:16:32;;;;;;;0.80;0.80;;;13.60;99.90;;;;;;5073244;28;20189;-79
2022/09/12 03:19:55;;;;;;;0.77;0.57;;;13.60;99.90;;;;;;5073841;28;20562;-79
2022/09/12 03:22:30;;;;;;;0.27;0.27;;;13.80;99.90;;;;;;4993831;28;20241;-79
2022/09/12 03:25:02;;;;;;;0.93;0.87;;;13.80;99.90;;;;;;4983330;28;20210;-79
2022/09/12 03:27:37;;;;;;;0.47;0.40;;;13.60;99.90;;;;;;5037407;28;20212;-78
2022/09/12 03:30:05;;;;;;;1.10;1.00;;;13.60;99.90;;;;;;5072122;28;20753;-79
2022/09/12 03:32:44;;;;;;;1.03;0.70;;;13.70;99.90;;;;;;5075400;28;20202;-79
2022/09/12 03:35:10;;;;;;;0.80;0.40;;;13.80;99.90;;;;;;5072025;28;20212;-79
2022/09/12 03:37:36;;;;;;;0.50;0.47;;;13.80;99.90;;;;;;5071987;28;20241;-79
2022/09/12 03:40:03;;;;;;;0.27;0.23;;;13.70;99.90;;;;;;5073789;28;20782;-79
2022/09/12 03:42:29;;;;;;;0.47;0.47;;;13.60;99.90;;;;;;5072838;28;20212;-79
2022/09/12 03:44:54;;;;;;;1.33;0.87;;;13.70;99.90;;;;;;5072470;28;20246;-79
2022/09/12 03:47:20;;;;;;;1.53;1.23;;;13.50;99.90;;;;;;5073445;28;20188;-79
2022/09/12 03:49:45;;;;;;;0.43;0.43;;;13.30;99.90;;;;;;5072751;28;20956;-79
2022/09/12 03:52:11;;;;;;;0.27;0.27;;;13.30;99.90;;;;;;5073459;28;20309;-79
2022/09/12 03:54:36;;;;;;;1.07;0.73;;;13.30;99.90;;;;;;5073751;28;20172;-79
2022/09/12 03:57:02;;;;;;;3.10;0.37;;;13.30;99.90;;;;;;5077006;28;20200;-79
2022/09/12 03:59:28;;;;;;;0.30;0.30;;;13.30;99.90;;;;;;5076923;28;20184;-79
2022/09/12 04:01:53;;;;;;;0.87;0.40;;;13.20;99.90;;;;;;5080489;28;20689;-79
2022/09/12 04:04:19;;;;;;;0.87;0.87;;;13.20;99.90;;;;;;5078784;28;20191;-79
2022/09/12 04:06:44;;;;;;;0.67;0.60;;;13.40;99.90;;;;;;5078148;28;20625;-79
2022/09/12 04:09:10;;;;;;;0.40;0.40;;;13.40;99.90;;;;;;5069964;28;20184;-79
2022/09/12 04:11:35;;;;;;;1.73;0.73;;;13.30;99.90;;;;;;5071428;28;20729;-79
2022/09/12 04:14:01;;;;;;;0.77;0.50;;;13.30;99.90;;;;;;5075585;28;20239;-79
2022/09/12 04:16:26;;;;;;;0.70;0.53;;;13.30;99.90;;;;;;5075710;28;20184;-79
2022/09/12 04:18:53;;;;;;;0.60;0.60;;;13.30;99.90;;;;;;5074281;28;20184;-78
2022/09/12 04:21:21;;;;;;;0.30;0.30;;;13.30;99.90;;;;;;5075198;28;20254;-79
2022/09/12 04:23:46;;;;;;;1.00;0.80;;;13.30;99.90;;;;;;5074771;28;20674;-79
2022/09/12 04:26:13;;;;;;;0.93;0.60;;;13.20;99.90;;;;;;5077612;28;20195;-79
2022/09/12 04:28:40;;;;;;;2.70;0.50;;;13.10;99.90;;;;;;5076296;28;20201;-80
2022/09/12 04:31:08;;;;;;;0.60;0.50;;;13.10;99.90;;;;;;5074886;28;20293;-79
2022/09/12 04:33:34;;;;;;;0.63;0.63;;;13.20;99.90;;;;;;5074715;28;20246;-78
2022/09/12 04:36:09;;;;;;;1.23;0.80;;;13.10;99.90;;;;;;5071843;28;20181;-79
2022/09/12 04:38:36;;;;;;;0.60;0.60;;;13.10;99.90;;;;;;5076429;28;20615;-79
2022/09/12 04:41:18;;;;;;;0.40;0.40;;;13.10;99.90;;;;;;5076351;28;20182;-79
2022/09/12 04:43:45;;;;;;;0.30;0.30;;;13.10;99.90;;;;;;5076030;28;20207;-79
2022/09/12 04:46:14;;;;;;;0.40;0.40;;;13.10;99.90;;;;;;5080232;28;20668;-79
2022/09/12 04:48:40;;;;;;;1.03;0.70;;;13.10;99.90;;;;;;5077241;28;20185;-80
2022/09/12 04:51:12;;;;;;;2.27;0.53;;;13.10;99.90;;;;;;5080927;28;20220;-79
2022/09/12 04:53:38;;;;;;;2.37;0.77;;;13.00;99.90;;;;;;5079043;28;20204;-79
2022/09/12 04:56:06;;;;;;;0.37;0.37;;;12.90;99.90;;;;;;5072979;28;20203;-79
2022/09/12 04:58:32;;;;;;;0.77;0.50;;;12.90;99.90;;;;;;5074252;28;20189;-79
2022/09/12 05:01:12;;;;;;;0.83;0.80;;;13.00;99.90;;;;;;5073107;28;20721;-78
2022/09/12 05:03:42;;;;;;;0.60;0.60;;;13.10;99.90;;;;;;5075907;28;20223;-79
2022/09/12 05:06:13;;;;;;;0.50;0.50;;;13.10;99.90;;;;;;5071950;28;20207;-79
2022/09/12 05:08:38;;;;;;;1.23;0.80;;;13.10;99.90;;;;;;5075535;28;20199;-79
2022/09/12 05:11:06;;;;;;;0.80;0.80;;;13.10;99.90;;;;;;5079891;28;20217;-79
2022/09/12 05:13:32;;;;;;;0.97;0.97;;;13.10;99.90;;;;;;5083373;28;20289;-79
2022/09/12 05:16:00;;;;;;;0.50;0.40;;;13.20;99.90;;;;;;5085412;28;20649;-80
2022/09/12 05:18:26;;;;;;;0.70;0.70;;;13.30;99.90;;;;;;5078313;28;20189;-79
2022/09/12 05:20:54;;;;;;;0.80;0.80;;;13.30;99.90;;;;;;5077701;28;20192;-79
2022/09/12 05:23:20;;;;;;;0.90;0.80;;;13.30;99.90;;;;;;5075518;28;20266;-79
2022/09/12 05:25:54;;;;;;;0.60;0.60;;;13.30;99.90;;;;;;5072830;28;20538;-79
2022/09/12 05:28:21;;;;;;;2.03;0.57;;;13.40;99.90;;;;;;5073293;28;20220;-79
2022/09/12 05:30:47;;;;;;;0.50;0.40;;;13.50;99.90;;;;;;5075629;28;20201;-79
2022/09/12 05:33:13;;;;;;;0.23;0.23;;;13.60;99.90;;;;;;5074236;28;20216;-79
2022/09/12 05:35:39;;;;;;;0.60;0.60;;;13.70;99.90;;;;;;5075416;28;20200;-79
2022/09/12 05:38:06;;;;;;;0.93;0.60;;;13.80;99.90;;;;;;5074969;28;20272;-79
2022/09/12 05:40:32;;;;;;;1.57;0.53;;;14.00;99.90;;;;;;5074458;28;20188;-79
2022/09/12 05:42:57;;;;;;;0.40;0.40;;;14.10;99.90;;;;;;5074443;28;20251;-79
2022/09/12 05:45:23;;;;;;;0.97;0.87;;;14.20;99.90;;;;;;5075815;28;20204;-79
2022/09/12 05:47:48;;;;;;;0.80;0.80;;;14.40;99.90;;;;;;5074078;28;20192;-79
2022/09/12 05:50:14;;;;;;;0.27;0.27;;;14.50;99.90;;;;;;5075220;28;20217;-78
2022/09/12 05:52:40;;;;;;;0.53;0.40;;;14.60;99.90;;;;;;5075352;28;20206;-79
2022/09/12 05:55:06;;;;;;;0.30;0.30;;;14.70;99.90;;;;;;5075978;28;20772;-78
2022/09/12 05:57:32;;;;;;;1.07;0.97;;;14.60;99.90;;;;;;5076627;28;20185;-79
2022/09/12 05:59:58;;;;;;;0.33;0.33;;;14.40;99.90;;;;;;5073983;28;20188;-79
2022/09/12 06:02:24;;;;;;;0.40;0.40;;;14.40;99.90;;;;;;5075130;28;20211;-79
2022/09/12 06:04:50;;;;;;;0.63;0.63;;;14.40;99.90;;;;;;5075324;28;20303;-79
2022/09/12 06:07:15;;;;;;;0.60;0.60;;;14.40;99.90;;;;;;5075104;28;20289;-80
2022/09/12 06:09:41;;;;;;;2.17;1.70;;;14.40;99.90;;;;;;5074315;28;20217;-79
2022/09/12 06:12:07;;;;;;;0.63;0.60;;;14.50;99.90;;;;;;5077864;28;20202;-79
2022/09/12 06:14:33;;;;;;;1.43;1.00;;;14.60;99.90;;;;;;5082372;28;20194;-79
2022/09/12 06:16:58;;;;;;;0.70;0.70;;;14.80;99.90;;;;;;5081221;28;21067;-79
2022/09/12 06:19:26;;;;;;;0.57;0.57;;;14.80;99.90;;;;;;5077940;28;20284;-79
2022/09/12 06:21:52;;;;;;;0.80;0.80;;;15.10;99.90;;;;;;5076485;28;20806;-80
2022/09/12 06:24:18;;;;;;;0.77;0.73;;;15.10;99.90;;;;;;5075828;28;20203;-79
2022/09/12 06:26:46;;;;;;;1.33;1.23;;;15.20;99.90;;;;;;5081270;28;20194;-80
2022/09/12 06:29:12;;;;;;;0.50;0.50;;;15.30;99.90;;;;;;5083318;28;20266;-79
2022/09/12 06:31:39;;;;;;;1.27;0.70;;;15.50;99.90;;;;;;5079214;28;20216;-80
2022/09/12 06:34:07;;;;;;;0.67;0.67;;;15.60;99.90;;;;;;5082633;28;20735;-80
2022/09/12 06:36:37;;;;;;;0.50;0.50;;;15.70;99.90;;;;;;5076125;28;20216;-80
2022/09/12 06:39:06;;;;;;;1.27;1.00;;;16.10;99.90;;;;;;5086008;28;20248;-80
2022/09/12 06:41:32;;;;;;;1.50;1.03;;;16.00;99.90;;;;;;5077722;28;20198;-80
2022/09/12 06:43:59;;;;;;;0.63;0.63;;;16.20;99.90;;;;;;5081165;28;20176;-80
2022/09/12 06:46:25;;;;;;;0.53;0.53;;;16.50;99.90;;;;;;5075248;28;20248;-80
2022/09/12 06:48:51;;;;;;;0.70;0.67;;;16.80;99.90;;;;;;5083654;28;20187;-79
2022/09/12 06:51:18;;;;;;;0.40;0.40;;;17.00;99.90;;;;;;5083310;28;20246;-80
2022/09/12 06:53:45;;;;;;;1.10;1.00;;;17.20;99.90;;;;;;5077454;28;20176;-80
2022/09/12 06:56:18;;;;;;;0.50;0.50;;;17.40;99.90;;;;;;5083613;28;20249;-80
2022/09/12 06:58:44;;;;;;;1.27;0.97;;;17.70;99.90;;;;;;5078390;28;20185;-80
2022/09/12 07:01:10;;;;;;;0.53;0.53;;;17.90;99.90;;;;;;5075757;28;20310;-80
2022/09/12 07:03:37;;;;;;;0.83;0.83;;;18.20;99.90;;;;;;5075721;28;20212;-80
2022/09/12 07:06:13;;;;;;;2.17;0.80;;;18.30;99.90;;;;;;5071698;28;20659;-80
2022/09/12 07:08:39;;;;;;;1.80;1.50;;;18.30;99.90;;;;;;5071812;28;20173;-81
2022/09/12 07:11:08;;;;;;;1.20;1.10;;;17.80;99.90;;;;;;5073726;28;20290;-79
2022/09/12 07:13:33;;;;;;;1.27;0.87;;;17.70;99.90;;;;;;5072677;28;20342;-79
2022/09/12 07:16:04;;;;;;;0.60;0.60;;;17.60;99.90;;;;;;5073704;28;20188;-79
2022/09/12 07:18:30;;;;;;;0.87;0.87;;;18.10;99.90;;;;;;5073886;28;20283;-79
2022/09/12 07:20:55;;;;;;;0.87;0.83;;;18.50;99.90;;;;;;5078231;28;20212;-79
2022/09/12 07:23:21;;;;;;;1.33;1.00;;;18.70;99.90;;;;;;5076137;28;20238;-80
2022/09/12 07:25:55;;;;;;;0.53;0.47;;;18.90;99.90;;;;;;5077133;28;20180;-79
2022/09/12 07:28:20;;;;;;;0.60;0.60;;;19.00;99.90;;;;;;5078330;28;20218;-79
2022/09/12 07:30:46;;;;;;;0.87;0.67;;;19.10;99.90;;;;;;5073105;28;20638;-79
2022/09/12 07:33:12;;;;;;;0.50;0.40;;;19.30;99.90;;;;;;5073271;28;20201;-79
2022/09/12 07:35:37;;;;;;;1.20;1.10;;;19.30;99.90;;;;;;5073008;28;20188;-79
2022/09/12 07:38:03;;;;;;;0.80;0.80;;;18.70;99.90;;;;;;5075604;28;20650;-79
2022/09/12 07:40:28;;;;;;;0.40;0.40;;;19.00;99.90;;;;;;5076661;28;20275;-79
2022/09/12 07:42:54;;;;;;;1.10;0.73;;;19.20;99.90;;;;;;5074635;28;20235;-79
2022/09/12 07:45:19;;;;;;;2.30;1.27;;;19.50;99.90;;;;;;5075922;28;20181;-79
2022/09/12 07:47:45;;;;;;;1.40;1.30;;;19.10;99.90;;;;;;5075254;28;20625;-80
2022/09/12 07:50:10;;;;;;;1.47;1.07;;;18.90;99.90;;;;;;5075722;28;20216;-79
2022/09/12 07:52:37;;;;;;;1.00;0.67;;;18.70;99.90;;;;;;5073216;28;20227;-79
2022/09/12 07:55:03;;;;;;;0.80;0.80;;;19.10;99.90;;;;;;5074857;28;20325;-79
2022/09/12 07:57:28;;;;;;;1.43;1.33;;;19.40;99.90;;;;;;5074574;28;20293;-79
2022/09/12 07:59:54;;;;;;;0.30;0.30;;;19.50;99.90;;;;;;5076375;28;20630;-79
2022/09/12 08:02:19;;;;;;;0.70;0.70;;;19.80;99.90;;;;;;5075196;28;20209;-79
2022/09/12 08:04:47;;;;;;;1.47;1.27;;;19.70;99.90;;;;;;5073927;28;20195;-79
2022/09/12 08:07:12;;;;;;;0.40;0.40;;;19.90;99.90;;;;;;5073684;28;20485;-79
2022/09/12 08:09:38;;;;;;;1.40;1.30;;;20.00;99.90;;;;;;5075786;28;20235;-79
2022/09/12 08:12:03;;;;;;;1.20;0.90;;;19.80;99.90;;;;;;5074132;28;20231;-79
2022/09/12 08:14:29;;;;;;;0.93;0.90;;;20.00;99.90;;;;;;5074012;28;20192;-79
2022/09/12 08:16:54;;;;;;;1.70;0.70;;;19.70;99.90;;;;;;5075874;28;20181;-80
2022/09/12 08:19:21;;;;;;;0.63;0.63;;;19.50;99.90;;;;;;5072005;28;20207;-79
2022/09/12 08:21:47;;;;;;;0.73;0.50;;;19.60;99.90;;;;;;5073565;28;20523;-82
2022/09/12 08:24:13;;;;;;;2.53;0.87;;;20.20;99.90;;;;;;5073738;28;20843;-80
2022/09/12 08:26:38;;;;;;;1.60;1.13;;;20.00;99.90;;;;;;5073007;28;20203;-80
2022/09/12 08:29:04;;;;;;;0.73;0.60;;;20.10;99.90;;;;;;5073643;28;20619;-80
2022/09/12 08:31:35;;;;;;;1.80;0.90;;;19.80;99.90;;;;;;5074510;28;20208;-80
2022/09/12 08:34:02;;;;;;;1.20;0.67;;;20.50;99.90;;;;;;5082104;28;20986;-80
2022/09/12 08:36:28;;;;;;;2.30;0.93;;;21.00;99.90;;;;;;5077983;28;20741;-79
2022/09/12 08:39:00;;;;;;;0.97;0.90;;;21.30;99.90;;;;;;5076688;28;20275;-79
2022/09/12 08:41:30;;;;;;;0.70;0.67;;;21.70;99.90;;;;;;5077225;28;20188;-79
2022/09/12 08:44:26;;;;;;;3.03;1.20;;;21.80;99.90;;;;;;5078924;28;20185;-79
2022/09/12 08:47:01;;;;;;;1.50;1.00;;;21.20;99.90;;;;;;5081126;28;20658;-79
2022/09/12 08:49:29;;;;;;;1.10;0.90;;;20.60;99.90;;;;;;5080755;28;20203;-79
2022/09/12 08:51:58;;;;;;;0.60;0.60;;;20.80;99.90;;;;;;5079878;28;20287;-79
2022/09/12 08:54:27;;;;;;;0.30;0.30;;;21.30;99.90;;;;;;5077364;28;20199;-80
2022/09/12 08:56:57;;;;;;;0.70;0.70;;;21.80;99.90;;;;;;5081633;28;20185;-80
2022/09/12 08:59:24;;;;;;;0.70;0.70;;;22.10;99.90;;;;;;5077120;28;20181;-80
2022/09/12 09:01:54;;;;;;;0.77;0.77;;;21.90;99.90;;;;;;5077486;28;20233;-80
2022/09/12 09:04:32;;;;;;;0.93;0.60;;;22.30;99.90;;;;;;5081340;28;20231;-79
2022/09/12 09:07:19;;;;;;;0.87;0.80;;;22.50;99.90;;;;;;5079656;28;20631;-80
2022/09/12 09:10:06;;;;;;;1.03;0.93;;;22.70;99.90;;;;;;5077210;28;20226;-80
2022/09/12 09:12:47;;;;;;;0.80;0.80;;;22.90;99.90;;;;;;5073073;28;20209;-79
2022/09/12 09:15:34;;;;;;;0.93;0.63;;;22.90;99.90;;;;;;5083095;28;20183;-80
2022/09/12 09:18:22;;;;;;;0.53;0.53;;;23.00;99.90;;;;;;5076700;28;20195;-79
2022/09/12 09:20:59;;;;;;;0.50;0.50;;;23.00;99.90;;;;;;5074938;28;21009;-79
2022/09/12 09:23:49;;;;;;;0.70;0.70;;;23.20;99.90;;;;;;5076992;28;20216;-79
2022/09/12 09:26:17;;;;;;;0.70;0.70;;;23.40;99.90;;;;;;5077225;28;20176;-79
2022/09/12 09:28:51;;;;;;;1.33;0.87;;;23.00;99.90;;;;;;5077346;28;20192;-79
2022/09/12 09:31:19;;;;;;;1.00;0.87;;;22.50;99.90;;;;;;5075474;28;20204;-79
2022/09/12 09:33:48;;;;;;;2.13;0.97;;;22.20;99.90;;;;;;5075151;28;20177;-79
2022/09/12 09:36:40;;;;;;;1.33;1.20;;;22.30;99.90;;;;;;5073267;28;20268;-79
2022/09/12 09:39:11;;;;;;;1.27;0.70;;;21.60;99.90;;;;;;5064485;28;20201;-79
2022/09/12 09:42:08;;;;;;;0.80;0.60;;;22.20;99.90;;;;;;5076933;28;20260;-79
2022/09/12 09:44:34;;;;;;;0.63;0.60;;;22.60;99.90;;;;;;5077381;28;20192;-79
2022/09/12 09:47:00;;;;;;;0.90;0.90;;;22.70;99.90;;;;;;5074920;28;20192;-79
2022/09/12 09:49:32;;;;;;;0.80;0.80;;;22.50;99.90;;;;;;5077327;28;20291;-79
2022/09/12 09:51:59;;;;;;;0.83;0.83;;;22.30;99.90;;;;;;5076965;28;20833;-79
2022/09/12 09:54:34;;;;;;;1.27;0.87;;;22.10;99.90;;;;;;5074228;28;20189;-80
2022/09/12 09:57:00;;;;;;;1.13;0.87;;;21.90;99.90;;;;;;5075257;28;20180;-79
2022/09/12 09:59:30;;;;;;;0.77;0.73;;;22.40;99.90;;;;;;5076009;28;20200;-79
2022/09/12 10:02:10;;;;;;;0.63;0.63;;;22.50;99.90;;;;;;5076474;28;20232;-79
2022/09/12 10:04:40;;;;;;;0.60;0.60;;;22.40;99.90;;;;;;5075238;28;20805;-79
2022/09/12 10:07:06;;;;;;;3.27;0.83;;;22.60;99.90;;;;;;5074719;28;20189;-79
2022/09/12 10:09:34;;;;;;;0.83;0.83;;;22.90;99.90;;;;;;5074981;28;20203;-79
2022/09/12 10:12:18;;;;;;;0.50;0.47;;;23.00;99.90;;;;;;5076951;28;20224;-80
2022/09/12 10:14:56;;;;;;;0.97;0.97;;;23.40;99.90;;;;;;5075523;28;20991;-79
2022/09/12 10:17:27;;;;;;;0.87;0.70;;;23.30;99.90;;;;;;5074128;28;20191;-79
2022/09/12 10:19:53;;;;;;;0.77;0.77;;;23.60;99.90;;;;;;5073550;28;20235;-79
2022/09/12 10:22:22;;;;;;;0.97;0.80;;;23.30;99.90;;;;;;5073511;28;20209;-80
2022/09/12 10:24:57;;;;;;;2.77;1.20;;;23.50;99.90;;;;;;5074203;28;20192;-79
2022/09/12 10:27:29;;;;;;;1.90;0.90;;;23.60;99.90;;;;;;5073797;28;20275;-79
2022/09/12 10:30:13;;;;;;;1.20;0.90;;;23.80;99.90;;;;;;5071338;28;20213;-79
2022/09/12 10:32:41;;;;;;;0.70;0.70;;;24.10;99.90;;;;;;5071906;28;20207;-79
2022/09/12 10:35:16;;;;;;;0.53;0.50;;;24.50;99.90;;;;;;5072029;28;20181;-79
2022/09/12 10:37:52;;;;;;;0.87;0.87;;;24.30;99.90;;;;;;5072925;28;20175;-79
2022/09/12 10:40:27;;;;;;;1.10;1.10;;;24.20;99.90;;;;;;5071090;28;20191;-79
2022/09/12 10:42:55;;;;;;;3.20;0.77;;;24.40;99.90;;;;;;5072338;28;20326;-79
2022/09/12 10:45:20;;;;;;;0.50;0.50;;;24.70;99.90;;;;;;5071265;28;20197;-80
2022/09/12 10:47:47;;;;;;;0.50;0.50;;;25.00;99.90;;;;;;5073123;28;20188;-79
2022/09/12 10:50:25;;;;;;;2.83;0.40;;;25.10;99.90;;;;;;5076683;28;21014;-79
2022/09/12 10:52:51;;;;;;;1.17;0.90;;;25.10;99.90;;;;;;5071351;28;20291;-79
2022/09/12 10:55:23;;;;;;;4.83;1.10;;;25.30;99.90;;;;;;5073411;28;20180;-79
2022/09/12 10:58:06;;;;;;;1.50;0.97;;;25.30;99.90;;;;;;5081311;28;20179;-79
2022/09/12 11:00:38;;;;;;;1.17;0.33;;;25.40;99.90;;;;;;5072389;28;20184;-80
2022/09/12 11:03:34;;;;;;;0.67;0.40;;;25.20;99.90;;;;;;5069099;28;20207;-79
2022/09/12 11:06:00;;;;;;;1.20;0.80;;;24.80;99.90;;;;;;5074312;28;20185;-79
2022/09/12 11:08:50;;;;;;;3.43;1.17;;;24.90;99.90;;;;;;5070683;28;20188;-79
2022/09/12 11:11:37;;;;;;;0.83;0.83;;;24.40;99.90;;;;;;5063880;28;20208;-79
2022/09/12 11:14:11;;;;;;;2.57;1.37;;;24.10;99.90;;;;;;5078588;28;20673;-79
2022/09/12 11:16:54;;;;;;;2.00;0.90;;;24.30;99.90;;;;;;5071301;28;20180;-79
2022/09/12 11:19:19;;;;;;;0.70;0.63;;;24.70;99.90;;;;;;5067167;28;20181;-79
2022/09/12 11:22:07;;;;;;;0.73;0.70;;;25.10;99.90;;;;;;5071676;28;20208;-79
2022/09/12 11:24:51;;;;;;;0.97;0.93;;;25.20;99.90;;;;;;5074875;28;20937;-80
2022/09/12 11:27:28;;;;;;;0.87;0.77;;;25.40;99.90;;;;;;5070374;28;20177;-79
2022/09/12 11:30:10;;;;;;;1.50;0.90;;;25.30;99.90;;;;;;5071335;28;20214;-79
2022/09/12 11:33:12;;;;;;;0.60;0.60;;;25.40;99.90;;;;;;5071311;28;20257;-79
2022/09/12 11:35:49;;;;;;;3.43;0.80;;;25.60;99.90;;;;;;5070999;28;20211;-79
2022/09/12 11:38:39;;;;;;;0.70;0.70;;;25.60;99.90;;;;;;5075441;28;20184;-79
2022/09/12 11:41:08;;;;;;;0.50;0.50;;;25.20;99.90;;;;;;5072762;28;20196;-79
2022/09/12 11:43:48;;;;;;;1.03;0.80;;;25.20;99.90;;;;;;5071703;28;20486;-80
2022/09/12 11:46:22;;;;;;;0.80;0.77;;;25.00;99.90;;;;;;5073902;28;20571;-80
2022/09/12 11:48:59;;;;;;;1.30;1.20;;;25.30;99.90;;;;;;5074535;28;20264;-80
2022/09/12 11:51:44;;;;;;;0.50;0.50;;;25.10;99.90;;;;;;5071884;28;20197;-80
2022/09/12 11:54:28;;;;;;;1.53;0.67;;;25.50;99.90;;;;;;5077068;28;20192;-80
2022/09/12 11:57:23;;;;;;;0.77;0.77;;;25.50;99.90;;;;;;5075198;28;20209;-80
2022/09/12 11:59:57;;;;;;;0.80;0.80;;;25.20;99.90;;;;;;5077786;28;20194;-80
2022/09/12 12:02:28;;;;;;;0.30;0.30;;;25.50;99.90;;;;;;5074740;28;20232;-80
2022/09/12 12:05:23;;;;;;;0.83;0.73;;;26.00;99.90;;;;;;5075907;28;20199;-80
2022/09/12 12:07:54;;;;;;;1.63;0.93;;;26.30;99.90;;;;;;5075480;28;20176;-80
2022/09/12 12:10:33;;;;;;;2.73;0.50;;;26.10;99.90;;;;;;5073194;28;20293;-80
2022/09/12 12:13:07;;;;;;;0.30;0.30;;;26.20;99.90;;;;;;5082528;28;20197;-80
2022/09/12 12:15:36;;;;;;;0.60;0.60;;;26.40;99.90;;;;;;5072924;28;20177;-80
2022/09/12 12:18:14;;;;;;;1.03;0.70;;;26.50;99.90;;;;;;5078527;28;20528;-79
2022/09/12 12:20:39;;;;;;;0.60;0.60;;;26.60;99.90;;;;;;5076542;28;20184;-80
2022/09/12 12:23:05;;;;;;;0.43;0.43;;;26.00;99.90;;;;;;5079486;28;20204;-80
2022/09/12 12:25:49;;;;;;;0.50;0.50;;;26.30;99.90;;;;;;5079089;28;20658;-80
2022/09/12 12:28:41;;;;;;;0.60;0.53;;;26.30;99.90;;;;;;5078608;28;20177;-80
2022/09/12 12:31:08;;;;;;;0.93;0.40;;;26.40;99.90;;;;;;5074338;28;20299;-80
2022/09/12 12:33:36;;;;;;;0.20;0.20;;;26.30;99.90;;;;;;5075047;28;20203;-80
2022/09/12 12:36:06;;;;;;;1.03;0.60;;;26.40;99.90;;;;;;5077281;28;20181;-80
2022/09/12 12:38:37;;;;;;;0.60;0.60;;;26.50;99.90;;;;;;5075776;28;20170;-80
2022/09/12 12:41:17;;;;;;;0.63;0.60;;;26.60;99.90;;;;;;5073691;28;20343;-80
2022/09/12 12:43:48;;;;;;;0.40;0.40;;;26.00;99.90;;;;;;5075117;28;20215;-80
2022/09/12 12:46:22;;;;;;;0.80;0.80;;;26.20;99.90;;;;;;5075097;28;20234;-80
2022/09/12 12:48:56;;;;;;;1.23;0.80;;;26.40;99.90;;;;;;5076245;28;20531;-80
2022/09/12 12:51:36;;;;;;;0.40;0.40;;;26.50;99.90;;;;;;5072482;28;20318;-80
2022/09/12 12:54:44;;;;;;;0.60;0.50;;;26.40;99.90;;;;;;5077972;28;20185;-80
2022/09/12 12:57:22;;;;;;;0.70;0.70;;;26.20;99.90;;;;;;5070437;28;20197;-80
2022/09/12 12:59:58;;;;;;;0.77;0.77;;;25.70;99.90;;;;;;5078248;28;20226;-80
2022/09/12 13:02:29;;;;;;;0.50;0.50;;;25.20;99.90;;;;;;5074241;28;20708;-80
2022/09/12 13:04:57;;;;;;;0.57;0.57;;;25.60;99.90;;;;;;5073979;28;20212;-80
2022/09/12 13:07:35;;;;;;;1.03;0.93;;;25.80;99.90;;;;;;5073634;28;20185;-80
2022/09/12 13:10:02;;;;;;;0.67;0.53;;;26.10;99.90;;;;;;5073757;28;20548;-80
2022/09/12 13:12:34;;;;;;;0.60;0.60;;;26.20;99.90;;;;;;5074919;28;20234;-80